sensor_id;sensor_type;location;lat;lon;timestamp;P1;durP1;ratioP1;P2;durP2;ratioP2
25581;SDS011;13462;50.764;4.332;2023-08-21T00:01:19;6.32;;;3.42;;
25581;SDS011;13462;50.764;4.332;2023-08-21T00:03:45;5.70;;;3.00;;
25581;SDS011;13462;50.764;4.332;2023-08-21T00:06:11;7.18;;;2.70;;
25581;SDS011;13462;50.764;4.332;2023-08-21T00:08:36;6.45;;;3.00;;
25581;SDS011;13462;50.764;4.332;2023-08-21T00:11:02;6.97;;;2.83;;
25581;SDS011;13462;50.764;4.332;2023-08-21T00:13:28;9.98;;;2.97;;
25581;SDS011;13462;50.764;4.332;2023-08-21T00:15:53;13.32;;;3.15;;
25581;SDS011;13462;50.764;4.332;2023-08-21T00:18:20;5.05;;;2.88;;
25581;SDS011;13462;50.764;4.332;2023-08-21T00:20:46;5.57;;;2.80;;
25581;SDS011;13462;50.764;4.332;2023-08-21T00:23:12;6.55;;;3.03;;
25581;SDS011;13462;50.764;4.332;2023-08-21T00:25:38;8.73;;;2.90;;
25581;SDS011;13462;50.764;4.332;2023-08-21T00:28:03;6.97;;;3.15;;
25581;SDS011;13462;50.764;4.332;2023-08-21T00:30:29;6.10;;;2.90;;
25581;SDS011;13462;50.764;4.332;2023-08-21T00:32:55;9.07;;;3.13;;
25581;SDS011;13462;50.764;4.332;2023-08-21T00:35:20;9.75;;;3.10;;
25581;SDS011;13462;50.764;4.332;2023-08-21T00:37:46;4.00;;;2.88;;
25581;SDS011;13462;50.764;4.332;2023-08-21T00:40:12;7.18;;;3.20;;
25581;SDS011;13462;50.764;4.332;2023-08-21T00:42:38;4.78;;;2.75;;
25581;SDS011;13462;50.764;4.332;2023-08-21T00:45:03;9.48;;;3.22;;
25581;SDS011;13462;50.764;4.332;2023-08-21T00:47:29;6.55;;;3.38;;
25581;SDS011;13462;50.764;4.332;2023-08-21T00:49:55;8.07;;;3.35;;
25581;SDS011;13462;50.764;4.332;2023-08-21T00:52:21;9.73;;;3.70;;
25581;SDS011;13462;50.764;4.332;2023-08-21T00:54:47;6.47;;;3.25;;
25581;SDS011;13462;50.764;4.332;2023-08-21T00:57:13;8.13;;;3.42;;
25581;SDS011;13462;50.764;4.332;2023-08-21T00:59:39;6.05;;;3.10;;
25581;SDS011;13462;50.764;4.332;2023-08-21T01:02:05;8.25;;;3.22;;
25581;SDS011;13462;50.764;4.332;2023-08-21T01:04:31;6.30;;;3.28;;
25581;SDS011;13462;50.764;4.332;2023-08-21T01:06:57;14.60;;;3.95;;
25581;SDS011;13462;50.764;4.332;2023-08-21T01:17:07;6.93;;;3.42;;
25581;SDS011;13462;50.764;4.332;2023-08-21T01:19:36;6.07;;;3.55;;
25581;SDS011;13462;50.764;4.332;2023-08-21T01:22:05;9.38;;;3.28;;
25581;SDS011;13462;50.764;4.332;2023-08-21T01:24:31;5.85;;;3.15;;
25581;SDS011;13462;50.764;4.332;2023-08-21T01:26:56;10.23;;;4.32;;
25581;SDS011;13462;50.764;4.332;2023-08-21T01:29:22;7.57;;;3.50;;
25581;SDS011;13462;50.764;4.332;2023-08-21T01:32:11;8.73;;;3.60;;
25581;SDS011;13462;50.764;4.332;2023-08-21T01:34:43;4.10;;;2.80;;
25581;SDS011;13462;50.764;4.332;2023-08-21T01:37:11;11.05;;;3.33;;
25581;SDS011;13462;50.764;4.332;2023-08-21T01:39:37;4.93;;;2.75;;
25581;SDS011;13462;50.764;4.332;2023-08-21T01:42:02;6.68;;;2.80;;
25581;SDS011;13462;50.764;4.332;2023-08-21T01:44:29;6.80;;;3.42;;
25581;SDS011;13462;50.764;4.332;2023-08-21T01:46:54;8.00;;;3.70;;
25581;SDS011;13462;50.764;4.332;2023-08-21T01:49:20;12.00;;;3.47;;
25581;SDS011;13462;50.764;4.332;2023-08-21T01:51:46;11.02;;;4.22;;
25581;SDS011;13462;50.764;4.332;2023-08-21T01:54:12;6.13;;;3.55;;
25581;SDS011;13462;50.764;4.332;2023-08-21T01:56:37;6.47;;;3.58;;
25581;SDS011;13462;50.764;4.332;2023-08-21T01:59:04;8.55;;;3.35;;
25581;SDS011;13462;50.764;4.332;2023-08-21T02:01:30;10.73;;;3.88;;
25581;SDS011;13462;50.764;4.332;2023-08-21T02:03:55;8.75;;;3.83;;
25581;SDS011;13462;50.764;4.332;2023-08-21T02:06:21;8.27;;;3.55;;
25581;SDS011;13462;50.764;4.332;2023-08-21T02:08:48;8.02;;;4.07;;
25581;SDS011;13462;50.764;4.332;2023-08-21T02:11:14;5.93;;;3.65;;
25581;SDS011;13462;50.764;4.332;2023-08-21T02:13:40;10.48;;;3.35;;
25581;SDS011;13462;50.764;4.332;2023-08-21T02:16:05;8.55;;;3.80;;
25581;SDS011;13462;50.764;4.332;2023-08-21T02:18:31;11.27;;;4.15;;
25581;SDS011;13462;50.764;4.332;2023-08-21T02:20:57;8.40;;;4.15;;
25581;SDS011;13462;50.764;4.332;2023-08-21T02:23:23;12.55;;;4.82;;
25581;SDS011;13462;50.764;4.332;2023-08-21T02:25:49;12.00;;;3.88;;
25581;SDS011;13462;50.764;4.332;2023-08-21T02:28:15;13.43;;;4.07;;
25581;SDS011;13462;50.764;4.332;2023-08-21T02:30:41;7.60;;;4.05;;
25581;SDS011;13462;50.764;4.332;2023-08-21T02:33:07;10.13;;;4.28;;
25581;SDS011;13462;50.764;4.332;2023-08-21T02:35:32;9.65;;;4.63;;
25581;SDS011;13462;50.764;4.332;2023-08-21T02:37:58;7.65;;;3.53;;
25581;SDS011;13462;50.764;4.332;2023-08-21T02:40:24;10.63;;;4.65;;
25581;SDS011;13462;50.764;4.332;2023-08-21T02:42:49;14.38;;;4.25;;
25581;SDS011;13462;50.764;4.332;2023-08-21T02:45:15;10.90;;;4.72;;
25581;SDS011;13462;50.764;4.332;2023-08-21T02:47:41;8.82;;;4.38;;
25581;SDS011;13462;50.764;4.332;2023-08-21T02:50:08;15.70;;;4.60;;
25581;SDS011;13462;50.764;4.332;2023-08-21T02:52:35;8.30;;;4.05;;
25581;SDS011;13462;50.764;4.332;2023-08-21T02:55:01;9.18;;;4.63;;
25581;SDS011;13462;50.764;4.332;2023-08-21T02:57:27;11.07;;;4.70;;
25581;SDS011;13462;50.764;4.332;2023-08-21T02:59:53;9.77;;;4.43;;
25581;SDS011;13462;50.764;4.332;2023-08-21T03:02:19;12.48;;;4.75;;
25581;SDS011;13462;50.764;4.332;2023-08-21T03:04:46;10.05;;;4.57;;
25581;SDS011;13462;50.764;4.332;2023-08-21T03:07:11;13.25;;;4.50;;
25581;SDS011;13462;50.764;4.332;2023-08-21T03:09:37;11.02;;;4.30;;
25581;SDS011;13462;50.764;4.332;2023-08-21T03:12:04;10.48;;;4.05;;
25581;SDS011;13462;50.764;4.332;2023-08-21T03:14:30;8.68;;;3.92;;
25581;SDS011;13462;50.764;4.332;2023-08-21T03:16:55;7.60;;;3.80;;
25581;SDS011;13462;50.764;4.332;2023-08-21T03:19:21;14.10;;;4.07;;
25581;SDS011;13462;50.764;4.332;2023-08-21T03:21:47;15.45;;;4.10;;
25581;SDS011;13462;50.764;4.332;2023-08-21T03:24:12;14.93;;;4.30;;
25581;SDS011;13462;50.764;4.332;2023-08-21T03:26:38;10.05;;;3.97;;
25581;SDS011;13462;50.764;4.332;2023-08-21T03:29:03;8.00;;;3.75;;
25581;SDS011;13462;50.764;4.332;2023-08-21T03:31:30;7.00;;;3.58;;
25581;SDS011;13462;50.764;4.332;2023-08-21T03:33:55;8.48;;;3.70;;
25581;SDS011;13462;50.764;4.332;2023-08-21T03:36:22;9.98;;;4.85;;
25581;SDS011;13462;50.764;4.332;2023-08-21T03:38:57;8.52;;;4.28;;
25581;SDS011;13462;50.764;4.332;2023-08-21T03:41:24;11.52;;;3.70;;
25581;SDS011;13462;50.764;4.332;2023-08-21T03:43:49;10.30;;;4.72;;
25581;SDS011;13462;50.764;4.332;2023-08-21T03:46:15;9.20;;;4.22;;
25581;SDS011;13462;50.764;4.332;2023-08-21T03:48:40;6.93;;;3.67;;
25581;SDS011;13462;50.764;4.332;2023-08-21T03:51:06;8.90;;;4.20;;
25581;SDS011;13462;50.764;4.332;2023-08-21T03:53:32;11.73;;;4.45;;
25581;SDS011;13462;50.764;4.332;2023-08-21T03:55:58;11.00;;;4.10;;
25581;SDS011;13462;50.764;4.332;2023-08-21T03:58:24;10.35;;;4.38;;
25581;SDS011;13462;50.764;4.332;2023-08-21T04:00:51;11.75;;;4.70;;
25581;SDS011;13462;50.764;4.332;2023-08-21T04:03:17;11.07;;;4.25;;
25581;SDS011;13462;50.764;4.332;2023-08-21T04:05:43;9.05;;;4.28;;
25581;SDS011;13462;50.764;4.332;2023-08-21T04:08:08;8.20;;;4.25;;
25581;SDS011;13462;50.764;4.332;2023-08-21T04:10:34;16.23;;;4.50;;
25581;SDS011;13462;50.764;4.332;2023-08-21T04:13:00;12.43;;;4.95;;
25581;SDS011;13462;50.764;4.332;2023-08-21T04:15:26;12.30;;;5.15;;
25581;SDS011;13462;50.764;4.332;2023-08-21T04:17:52;8.27;;;4.28;;
25581;SDS011;13462;50.764;4.332;2023-08-21T04:20:19;11.32;;;4.55;;
25581;SDS011;13462;50.764;4.332;2023-08-21T04:22:46;10.88;;;5.13;;
25581;SDS011;13462;50.764;4.332;2023-08-21T04:25:11;9.07;;;4.93;;
25581;SDS011;13462;50.764;4.332;2023-08-21T04:27:37;13.85;;;5.10;;
25581;SDS011;13462;50.764;4.332;2023-08-21T04:30:03;12.18;;;4.68;;
25581;SDS011;13462;50.764;4.332;2023-08-21T04:32:30;8.23;;;4.63;;
25581;SDS011;13462;50.764;4.332;2023-08-21T04:34:55;7.53;;;4.13;;
25581;SDS011;13462;50.764;4.332;2023-08-21T04:37:21;10.15;;;4.78;;
25581;SDS011;13462;50.764;4.332;2023-08-21T04:39:50;10.32;;;4.47;;
25581;SDS011;13462;50.764;4.332;2023-08-21T04:42:17;13.48;;;4.32;;
25581;SDS011;13462;50.764;4.332;2023-08-21T04:44:42;10.63;;;4.82;;
25581;SDS011;13462;50.764;4.332;2023-08-21T04:49:51;14.68;;;4.40;;
25581;SDS011;13462;50.764;4.332;2023-08-21T04:52:17;11.27;;;4.15;;
25581;SDS011;13462;50.764;4.332;2023-08-21T04:54:43;9.63;;;4.90;;
25581;SDS011;13462;50.764;4.332;2023-08-21T04:57:09;12.38;;;4.60;;
25581;SDS011;13462;50.764;4.332;2023-08-21T04:59:35;11.80;;;4.38;;
25581;SDS011;13462;50.764;4.332;2023-08-21T05:02:01;10.60;;;4.32;;
25581;SDS011;13462;50.764;4.332;2023-08-21T05:04:27;13.70;;;4.55;;
25581;SDS011;13462;50.764;4.332;2023-08-21T05:06:53;13.25;;;4.63;;
25581;SDS011;13462;50.764;4.332;2023-08-21T05:09:18;10.38;;;4.03;;
25581;SDS011;13462;50.764;4.332;2023-08-21T05:11:44;8.98;;;4.40;;
25581;SDS011;13462;50.764;4.332;2023-08-21T05:14:10;12.73;;;4.93;;
25581;SDS011;13462;50.764;4.332;2023-08-21T05:16:35;11.57;;;4.80;;
25581;SDS011;13462;50.764;4.332;2023-08-21T05:19:01;11.95;;;4.43;;
25581;SDS011;13462;50.764;4.332;2023-08-21T05:21:27;5.70;;;3.92;;
25581;SDS011;13462;50.764;4.332;2023-08-21T05:23:52;13.52;;;4.55;;
25581;SDS011;13462;50.764;4.332;2023-08-21T05:26:18;12.48;;;4.70;;
25581;SDS011;13462;50.764;4.332;2023-08-21T05:28:44;12.73;;;4.50;;
25581;SDS011;13462;50.764;4.332;2023-08-21T05:31:10;8.15;;;3.75;;
25581;SDS011;13462;50.764;4.332;2023-08-21T05:33:36;12.10;;;3.97;;
25581;SDS011;13462;50.764;4.332;2023-08-21T05:36:01;9.82;;;4.28;;
25581;SDS011;13462;50.764;4.332;2023-08-21T05:38:27;11.80;;;5.22;;
25581;SDS011;13462;50.764;4.332;2023-08-21T05:40:52;12.13;;;4.82;;
25581;SDS011;13462;50.764;4.332;2023-08-21T05:43:18;12.50;;;4.18;;
25581;SDS011;13462;50.764;4.332;2023-08-21T05:45:44;9.23;;;4.78;;
25581;SDS011;13462;50.764;4.332;2023-08-21T05:48:10;10.80;;;4.53;;
25581;SDS011;13462;50.764;4.332;2023-08-21T05:50:38;13.48;;;4.90;;
25581;SDS011;13462;50.764;4.332;2023-08-21T05:53:04;11.93;;;4.25;;
25581;SDS011;13462;50.764;4.332;2023-08-21T05:55:30;16.42;;;4.72;;
25581;SDS011;13462;50.764;4.332;2023-08-21T05:57:55;10.25;;;4.65;;
25581;SDS011;13462;50.764;4.332;2023-08-21T06:00:21;6.03;;;4.32;;
25581;SDS011;13462;50.764;4.332;2023-08-21T06:02:46;9.25;;;3.55;;
25581;SDS011;13462;50.764;4.332;2023-08-21T06:05:12;12.30;;;4.63;;
25581;SDS011;13462;50.764;4.332;2023-08-21T06:07:38;10.60;;;4.28;;
25581;SDS011;13462;50.764;4.332;2023-08-21T06:10:06;11.27;;;4.07;;
25581;SDS011;13462;50.764;4.332;2023-08-21T06:12:37;13.70;;;4.28;;
25581;SDS011;13462;50.764;4.332;2023-08-21T06:15:03;9.95;;;3.75;;
25581;SDS011;13462;50.764;4.332;2023-08-21T06:17:29;7.43;;;3.33;;
25581;SDS011;13462;50.764;4.332;2023-08-21T06:19:55;14.68;;;4.10;;
25581;SDS011;13462;50.764;4.332;2023-08-21T06:22:21;8.38;;;3.47;;
25581;SDS011;13462;50.764;4.332;2023-08-21T06:24:46;9.27;;;3.75;;
25581;SDS011;13462;50.764;4.332;2023-08-21T06:27:12;14.38;;;4.15;;
25581;SDS011;13462;50.764;4.332;2023-08-21T06:29:37;12.73;;;3.47;;
25581;SDS011;13462;50.764;4.332;2023-08-21T06:32:05;5.82;;;3.30;;
25581;SDS011;13462;50.764;4.332;2023-08-21T06:34:31;11.38;;;3.83;;
25581;SDS011;13462;50.764;4.332;2023-08-21T06:36:56;11.10;;;3.53;;
25581;SDS011;13462;50.764;4.332;2023-08-21T06:39:22;6.50;;;3.30;;
25581;SDS011;13462;50.764;4.332;2023-08-21T06:41:47;7.88;;;3.53;;
25581;SDS011;13462;50.764;4.332;2023-08-21T06:44:13;12.43;;;3.97;;
25581;SDS011;13462;50.764;4.332;2023-08-21T06:46:39;8.85;;;3.58;;
25581;SDS011;13462;50.764;4.332;2023-08-21T06:49:04;9.80;;;4.00;;
25581;SDS011;13462;50.764;4.332;2023-08-21T06:51:30;8.75;;;4.05;;
25581;SDS011;13462;50.764;4.332;2023-08-21T06:53:56;12.77;;;4.95;;
25581;SDS011;13462;50.764;4.332;2023-08-21T06:56:21;13.73;;;4.15;;
25581;SDS011;13462;50.764;4.332;2023-08-21T06:58:48;14.23;;;4.75;;
25581;SDS011;13462;50.764;4.332;2023-08-21T07:01:13;16.77;;;5.03;;
25581;SDS011;13462;50.764;4.332;2023-08-21T07:03:39;12.07;;;5.22;;
25581;SDS011;13462;50.764;4.332;2023-08-21T07:06:04;10.95;;;5.32;;
25581;SDS011;13462;50.764;4.332;2023-08-21T07:08:30;17.50;;;5.68;;
25581;SDS011;13462;50.764;4.332;2023-08-21T07:10:56;22.70;;;6.30;;
25581;SDS011;13462;50.764;4.332;2023-08-21T07:13:21;16.60;;;5.78;;
25581;SDS011;13462;50.764;4.332;2023-08-21T07:15:47;12.88;;;5.45;;
25581;SDS011;13462;50.764;4.332;2023-08-21T07:18:13;13.98;;;5.93;;
25581;SDS011;13462;50.764;4.332;2023-08-21T07:20:39;13.90;;;5.60;;
25581;SDS011;13462;50.764;4.332;2023-08-21T07:23:05;17.00;;;5.47;;
25581;SDS011;13462;50.764;4.332;2023-08-21T07:25:31;14.77;;;5.47;;
25581;SDS011;13462;50.764;4.332;2023-08-21T07:27:56;15.75;;;5.45;;
25581;SDS011;13462;50.764;4.332;2023-08-21T07:30:23;12.82;;;5.43;;
25581;SDS011;13462;50.764;4.332;2023-08-21T07:32:49;23.98;;;6.20;;
25581;SDS011;13462;50.764;4.332;2023-08-21T07:35:15;13.30;;;6.25;;
25581;SDS011;13462;50.764;4.332;2023-08-21T07:37:44;15.80;;;4.82;;
25581;SDS011;13462;50.764;4.332;2023-08-21T07:40:10;10.32;;;4.60;;
25581;SDS011;13462;50.764;4.332;2023-08-21T07:42:36;16.98;;;5.03;;
25581;SDS011;13462;50.764;4.332;2023-08-21T07:45:02;17.15;;;5.05;;
25581;SDS011;13462;50.764;4.332;2023-08-21T07:47:28;16.30;;;5.40;;
25581;SDS011;13462;50.764;4.332;2023-08-21T08:53:23;8.95;;;4.38;;
25581;SDS011;13462;50.764;4.332;2023-08-21T08:55:49;9.05;;;4.15;;
25581;SDS011;13462;50.764;4.332;2023-08-21T08:58:14;10.88;;;5.03;;
25581;SDS011;13462;50.764;4.332;2023-08-21T09:00:40;7.90;;;3.20;;
25581;SDS011;13462;50.764;4.332;2023-08-21T09:03:06;8.60;;;3.78;;
25581;SDS011;13462;50.764;4.332;2023-08-21T09:05:33;12.95;;;4.60;;
25581;SDS011;13462;50.764;4.332;2023-08-21T09:08:03;8.93;;;4.53;;
25581;SDS011;13462;50.764;4.332;2023-08-21T09:10:35;10.52;;;5.15;;
25581;SDS011;13462;50.764;4.332;2023-08-21T09:13:09;11.65;;;4.70;;
25581;SDS011;13462;50.764;4.332;2023-08-21T09:15:36;9.85;;;4.22;;
25581;SDS011;13462;50.764;4.332;2023-08-21T09:18:03;10.15;;;5.13;;
25581;SDS011;13462;50.764;4.332;2023-08-21T09:20:34;9.68;;;3.70;;
25581;SDS011;13462;50.764;4.332;2023-08-21T09:23:00;10.98;;;4.40;;
25581;SDS011;13462;50.764;4.332;2023-08-21T09:25:26;8.13;;;5.00;;
25581;SDS011;13462;50.764;4.332;2023-08-21T09:27:52;10.55;;;3.78;;
25581;SDS011;13462;50.764;4.332;2023-08-21T09:30:20;7.53;;;2.72;;
25581;SDS011;13462;50.764;4.332;2023-08-21T09:35:18;7.45;;;3.08;;
25581;SDS011;13462;50.764;4.332;2023-08-21T09:37:46;4.53;;;2.50;;
25581;SDS011;13462;50.764;4.332;2023-08-21T09:40:11;6.63;;;2.90;;
25581;SDS011;13462;50.764;4.332;2023-08-21T09:42:39;8.30;;;3.55;;
25581;SDS011;13462;50.764;4.332;2023-08-21T09:45:04;6.22;;;2.90;;
25581;SDS011;13462;50.764;4.332;2023-08-21T09:47:31;8.10;;;3.78;;
25581;SDS011;13462;50.764;4.332;2023-08-21T09:49:58;9.50;;;3.53;;
25581;SDS011;13462;50.764;4.332;2023-08-21T09:52:24;9.88;;;4.40;;
25581;SDS011;13462;50.764;4.332;2023-08-21T09:54:50;8.05;;;3.33;;
25581;SDS011;13462;50.764;4.332;2023-08-21T09:57:18;9.02;;;3.75;;
25581;SDS011;13462;50.764;4.332;2023-08-21T09:59:48;7.82;;;3.03;;
25581;SDS011;13462;50.764;4.332;2023-08-21T10:02:18;5.63;;;3.15;;
25581;SDS011;13462;50.764;4.332;2023-08-21T10:04:44;7.22;;;2.65;;
25581;SDS011;13462;50.764;4.332;2023-08-21T10:07:11;9.50;;;3.72;;
25581;SDS011;13462;50.764;4.332;2023-08-21T10:09:39;6.28;;;3.10;;
25581;SDS011;13462;50.764;4.332;2023-08-21T10:12:08;8.75;;;3.25;;
25581;SDS011;13462;50.764;4.332;2023-08-21T10:14:34;5.32;;;3.00;;
25581;SDS011;13462;50.764;4.332;2023-08-21T10:17:01;8.20;;;3.20;;
25581;SDS011;13462;50.764;4.332;2023-08-21T10:19:32;5.00;;;2.92;;
25581;SDS011;13462;50.764;4.332;2023-08-21T10:21:59;6.30;;;3.03;;
25581;SDS011;13462;50.764;4.332;2023-08-21T10:24:25;5.13;;;2.10;;
25581;SDS011;13462;50.764;4.332;2023-08-21T10:26:53;4.80;;;2.03;;
25581;SDS011;13462;50.764;4.332;2023-08-21T10:29:19;4.45;;;1.80;;
25581;SDS011;13462;50.764;4.332;2023-08-21T10:31:45;7.30;;;2.50;;
25581;SDS011;13462;50.764;4.332;2023-08-21T10:34:13;5.10;;;2.20;;
25581;SDS011;13462;50.764;4.332;2023-08-21T10:42:08;4.47;;;1.95;;
25581;SDS011;13462;50.764;4.332;2023-08-21T10:49:58;4.80;;;1.67;;
25581;SDS011;13462;50.764;4.332;2023-08-21T10:52:26;3.17;;;1.80;;
25581;SDS011;13462;50.764;4.332;2023-08-21T10:54:54;5.63;;;1.88;;
25581;SDS011;13462;50.764;4.332;2023-08-21T11:02:35;3.15;;;1.67;;
25581;SDS011;13462;50.764;4.332;2023-08-21T11:05:02;2.72;;;1.52;;
25581;SDS011;13462;50.764;4.332;2023-08-21T11:07:28;3.47;;;2.10;;
25581;SDS011;13462;50.764;4.332;2023-08-21T11:09:54;2.67;;;1.73;;
25581;SDS011;13462;50.764;4.332;2023-08-21T11:12:21;5.18;;;1.90;;
25581;SDS011;13462;50.764;4.332;2023-08-21T11:14:49;3.17;;;1.42;;
25581;SDS011;13462;50.764;4.332;2023-08-21T11:17:15;3.78;;;1.70;;
25581;SDS011;13462;50.764;4.332;2023-08-21T11:19:43;2.88;;;1.80;;
25581;SDS011;13462;50.764;4.332;2023-08-21T11:22:09;5.03;;;1.90;;
25581;SDS011;13462;50.764;4.332;2023-08-21T11:27:05;3.35;;;1.73;;
25581;SDS011;13462;50.764;4.332;2023-08-21T11:29:36;3.33;;;1.60;;
25581;SDS011;13462;50.764;4.332;2023-08-21T11:32:05;5.07;;;2.17;;
25581;SDS011;13462;50.764;4.332;2023-08-21T11:34:37;5.70;;;2.53;;
25581;SDS011;13462;50.764;4.332;2023-08-21T11:37:03;5.65;;;1.98;;
25581;SDS011;13462;50.764;4.332;2023-08-21T11:42:32;3.67;;;1.92;;
25581;SDS011;13462;50.764;4.332;2023-08-21T11:44:58;4.43;;;2.15;;
25581;SDS011;13462;50.764;4.332;2023-08-21T11:47:29;4.40;;;1.80;;
25581;SDS011;13462;50.764;4.332;2023-08-21T11:50:03;4.65;;;1.75;;
25581;SDS011;13462;50.764;4.332;2023-08-21T11:52:30;4.57;;;1.77;;
25581;SDS011;13462;50.764;4.332;2023-08-21T11:55:03;3.85;;;1.90;;
25581;SDS011;13462;50.764;4.332;2023-08-21T11:57:34;3.25;;;2.03;;
25581;SDS011;13462;50.764;4.332;2023-08-21T12:00:00;5.43;;;1.77;;
25581;SDS011;13462;50.764;4.332;2023-08-21T12:02:26;5.95;;;2.13;;
25581;SDS011;13462;50.764;4.332;2023-08-21T12:04:53;6.07;;;1.95;;
25581;SDS011;13462;50.764;4.332;2023-08-21T12:07:20;4.60;;;1.83;;
25581;SDS011;13462;50.764;4.332;2023-08-21T12:09:46;5.30;;;2.72;;
25581;SDS011;13462;50.764;4.332;2023-08-21T12:12:15;4.20;;;1.95;;
25581;SDS011;13462;50.764;4.332;2023-08-21T12:14:41;6.10;;;1.98;;
25581;SDS011;13462;50.764;4.332;2023-08-21T12:17:06;3.42;;;2.05;;
25581;SDS011;13462;50.764;4.332;2023-08-21T12:19:32;5.10;;;1.80;;
25581;SDS011;13462;50.764;4.332;2023-08-21T12:21:58;4.43;;;2.58;;
25581;SDS011;13462;50.764;4.332;2023-08-21T12:24:24;7.18;;;2.40;;
25581;SDS011;13462;50.764;4.332;2023-08-21T12:26:49;3.67;;;2.40;;
25581;SDS011;13462;50.764;4.332;2023-08-21T12:29:15;4.38;;;2.10;;
25581;SDS011;13462;50.764;4.332;2023-08-21T12:31:41;5.35;;;2.22;;
25581;SDS011;13462;50.764;4.332;2023-08-21T12:34:06;4.00;;;2.03;;
25581;SDS011;13462;50.764;4.332;2023-08-21T12:36:35;5.03;;;2.17;;
25581;SDS011;13462;50.764;4.332;2023-08-21T12:39:02;4.88;;;2.10;;
25581;SDS011;13462;50.764;4.332;2023-08-21T12:41:29;6.97;;;2.53;;
25581;SDS011;13462;50.764;4.332;2023-08-21T12:43:55;5.60;;;2.60;;
25581;SDS011;13462;50.764;4.332;2023-08-21T12:46:20;9.10;;;2.63;;
25581;SDS011;13462;50.764;4.332;2023-08-21T12:48:46;3.90;;;2.35;;
25581;SDS011;13462;50.764;4.332;2023-08-21T12:51:12;3.53;;;1.95;;
25581;SDS011;13462;50.764;4.332;2023-08-21T12:53:38;5.18;;;2.53;;
25581;SDS011;13462;50.764;4.332;2023-08-21T12:56:04;3.92;;;2.40;;
25581;SDS011;13462;50.764;4.332;2023-08-21T12:58:29;3.83;;;2.00;;
25581;SDS011;13462;50.764;4.332;2023-08-21T13:00:55;6.22;;;2.60;;
25581;SDS011;13462;50.764;4.332;2023-08-21T13:03:20;5.57;;;2.45;;
25581;SDS011;13462;50.764;4.332;2023-08-21T13:05:46;7.97;;;2.92;;
25581;SDS011;13462;50.764;4.332;2023-08-21T13:08:12;7.20;;;2.50;;
25581;SDS011;13462;50.764;4.332;2023-08-21T13:10:39;9.40;;;2.45;;
25581;SDS011;13462;50.764;4.332;2023-08-21T13:13:04;5.88;;;2.58;;
25581;SDS011;13462;50.764;4.332;2023-08-21T13:15:30;4.40;;;2.20;;
25581;SDS011;13462;50.764;4.332;2023-08-21T13:17:56;4.07;;;2.30;;
25581;SDS011;13462;50.764;4.332;2023-08-21T13:20:22;9.25;;;2.30;;
25581;SDS011;13462;50.764;4.332;2023-08-21T13:22:48;3.20;;;1.95;;
25581;SDS011;13462;50.764;4.332;2023-08-21T13:25:19;5.10;;;2.17;;
25581;SDS011;13462;50.764;4.332;2023-08-21T13:27:47;4.68;;;2.17;;
25581;SDS011;13462;50.764;4.332;2023-08-21T13:30:13;4.68;;;2.25;;
25581;SDS011;13462;50.764;4.332;2023-08-21T13:32:40;6.35;;;2.17;;
25581;SDS011;13462;50.764;4.332;2023-08-21T13:35:05;3.13;;;1.88;;
25581;SDS011;13462;50.764;4.332;2023-08-21T13:37:33;3.58;;;2.47;;
25581;SDS011;13462;50.764;4.332;2023-08-21T13:39:59;6.18;;;2.00;;
25581;SDS011;13462;50.764;4.332;2023-08-21T13:42:26;5.75;;;2.38;;
25581;SDS011;13462;50.764;4.332;2023-08-21T13:44:56;3.35;;;1.88;;
25581;SDS011;13462;50.764;4.332;2023-08-21T13:47:22;4.55;;;2.08;;
25581;SDS011;13462;50.764;4.332;2023-08-21T13:49:47;2.83;;;2.03;;
25581;SDS011;13462;50.764;4.332;2023-08-21T13:52:13;4.07;;;2.47;;
25581;SDS011;13462;50.764;4.332;2023-08-21T13:54:39;5.68;;;2.08;;
25581;SDS011;13462;50.764;4.332;2023-08-21T13:57:04;7.35;;;3.13;;
25581;SDS011;13462;50.764;4.332;2023-08-21T13:59:30;4.40;;;1.90;;
25581;SDS011;13462;50.764;4.332;2023-08-21T14:01:55;4.25;;;2.10;;
25581;SDS011;13462;50.764;4.332;2023-08-21T14:04:21;3.90;;;2.05;;
25581;SDS011;13462;50.764;4.332;2023-08-21T14:06:47;8.02;;;2.10;;
25581;SDS011;13462;50.764;4.332;2023-08-21T14:09:12;9.35;;;2.72;;
25581;SDS011;13462;50.764;4.332;2023-08-21T14:11:38;3.58;;;2.05;;
25581;SDS011;13462;50.764;4.332;2023-08-21T14:14:03;6.55;;;2.80;;
25581;SDS011;13462;50.764;4.332;2023-08-21T14:16:29;3.22;;;2.05;;
25581;SDS011;13462;50.764;4.332;2023-08-21T14:18:55;5.72;;;2.50;;
25581;SDS011;13462;50.764;4.332;2023-08-21T14:21:20;4.63;;;2.28;;
25581;SDS011;13462;50.764;4.332;2023-08-21T14:23:46;5.18;;;2.25;;
25581;SDS011;13462;50.764;4.332;2023-08-21T14:26:11;5.65;;;2.20;;
25581;SDS011;13462;50.764;4.332;2023-08-21T14:28:37;4.10;;;2.22;;
25581;SDS011;13462;50.764;4.332;2023-08-21T14:31:02;3.60;;;1.50;;
25581;SDS011;13462;50.764;4.332;2023-08-21T14:33:28;11.23;;;2.28;;
25581;SDS011;13462;50.764;4.332;2023-08-21T14:35:54;2.60;;;1.90;;
25581;SDS011;13462;50.764;4.332;2023-08-21T14:38:19;5.13;;;2.17;;
25581;SDS011;13462;50.764;4.332;2023-08-21T14:40:45;3.10;;;1.50;;
25581;SDS011;13462;50.764;4.332;2023-08-21T14:43:11;5.25;;;1.98;;
25581;SDS011;13462;50.764;4.332;2023-08-21T14:45:36;3.92;;;1.52;;
25581;SDS011;13462;50.764;4.332;2023-08-21T14:48:02;3.17;;;1.80;;
25581;SDS011;13462;50.764;4.332;2023-08-21T14:50:28;4.32;;;1.75;;
25581;SDS011;13462;50.764;4.332;2023-08-21T14:52:54;2.20;;;1.60;;
25581;SDS011;13462;50.764;4.332;2023-08-21T14:55:20;6.95;;;2.10;;
25581;SDS011;13462;50.764;4.332;2023-08-21T14:57:46;3.13;;;1.92;;
25581;SDS011;13462;50.764;4.332;2023-08-21T15:00:11;2.47;;;1.80;;
25581;SDS011;13462;50.764;4.332;2023-08-21T15:02:38;3.15;;;1.73;;
25581;SDS011;13462;50.764;4.332;2023-08-21T15:05:03;4.43;;;1.58;;
25581;SDS011;13462;50.764;4.332;2023-08-21T15:07:30;2.20;;;1.50;;
25581;SDS011;13462;50.764;4.332;2023-08-21T15:09:56;6.13;;;1.73;;
25581;SDS011;13462;50.764;4.332;2023-08-21T15:12:21;4.00;;;2.00;;
25581;SDS011;13462;50.764;4.332;2023-08-21T15:14:47;5.90;;;1.90;;
25581;SDS011;13462;50.764;4.332;2023-08-21T15:17:13;5.45;;;1.52;;
25581;SDS011;13462;50.764;4.332;2023-08-21T15:19:38;4.63;;;1.50;;
25581;SDS011;13462;50.764;4.332;2023-08-21T15:22:04;5.43;;;1.50;;
25581;SDS011;13462;50.764;4.332;2023-08-21T15:24:30;5.88;;;2.00;;
25581;SDS011;13462;50.764;4.332;2023-08-21T15:26:55;3.17;;;1.73;;
25581;SDS011;13462;50.764;4.332;2023-08-21T15:29:21;4.82;;;1.85;;
25581;SDS011;13462;50.764;4.332;2023-08-21T15:31:46;3.15;;;1.70;;
25581;SDS011;13462;50.764;4.332;2023-08-21T15:34:12;4.03;;;1.90;;
25581;SDS011;13462;50.764;4.332;2023-08-21T15:36:38;5.18;;;1.73;;
25581;SDS011;13462;50.764;4.332;2023-08-21T15:39:03;4.30;;;2.10;;
25581;SDS011;13462;50.764;4.332;2023-08-21T15:41:29;2.83;;;1.73;;
25581;SDS011;13462;50.764;4.332;2023-08-21T15:43:54;4.03;;;1.40;;
25581;SDS011;13462;50.764;4.332;2023-08-21T15:46:20;2.28;;;1.30;;
25581;SDS011;13462;50.764;4.332;2023-08-21T15:48:46;3.03;;;1.77;;
25581;SDS011;13462;50.764;4.332;2023-08-21T15:51:11;2.67;;;1.95;;
25581;SDS011;13462;50.764;4.332;2023-08-21T15:53:37;1.92;;;1.60;;
25581;SDS011;13462;50.764;4.332;2023-08-21T15:56:03;4.38;;;1.67;;
25581;SDS011;13462;50.764;4.332;2023-08-21T15:58:28;4.22;;;1.50;;
25581;SDS011;13462;50.764;4.332;2023-08-21T16:00:55;3.78;;;1.50;;
25581;SDS011;13462;50.764;4.332;2023-08-21T16:03:22;2.35;;;1.23;;
25581;SDS011;13462;50.764;4.332;2023-08-21T16:05:48;1.90;;;1.60;;
25581;SDS011;13462;50.764;4.332;2023-08-21T16:08:13;2.50;;;1.60;;
25581;SDS011;13462;50.764;4.332;2023-08-21T16:10:39;2.47;;;1.80;;
25581;SDS011;13462;50.764;4.332;2023-08-21T16:13:04;2.78;;;1.40;;
25581;SDS011;13462;50.764;4.332;2023-08-21T16:15:30;2.88;;;1.90;;